sensor_id;sensor_type;location;lat;lon;timestamp;temperature;humidity
36292;DHT22;22327;51.208;6.418;2023-02-28T00:01:22;4.00;89.80
36292;DHT22;22327;51.208;6.418;2023-02-28T00:03:48;3.90;89.80
36292;DHT22;22327;51.208;6.418;2023-02-28T00:06:14;3.90;90.00
36292;DHT22;22327;51.208;6.418;2023-02-28T00:08:39;3.90;90.00
36292;DHT22;22327;51.208;6.418;2023-02-28T00:11:10;3.80;90.20
36292;DHT22;22327;51.208;6.418;2023-02-28T00:13:39;3.80;90.20
36292;DHT22;22327;51.208;6.418;2023-02-28T00:16:08;3.90;90.20
36292;DHT22;22327;51.208;6.418;2023-02-28T00:18:34;3.80;90.30
36292;DHT22;22327;51.208;6.418;2023-02-28T00:21:00;3.70;90.40
36292;DHT22;22327;51.208;6.418;2023-02-28T00:23:27;3.70;90.50
36292;DHT22;22327;51.208;6.418;2023-02-28T00:25:53;3.70;90.70
36292;DHT22;22327;51.208;6.418;2023-02-28T00:28:18;3.70;90.60
36292;DHT22;22327;51.208;6.418;2023-02-28T00:30:44;3.70;90.70
36292;DHT22;22327;51.208;6.418;2023-02-28T00:33:10;3.70;90.60
36292;DHT22;22327;51.208;6.418;2023-02-28T00:35:35;3.70;90.60
36292;DHT22;22327;51.208;6.418;2023-02-28T00:38:01;3.70;90.60
36292;DHT22;22327;51.208;6.418;2023-02-28T00:40:27;3.70;90.70
36292;DHT22;22327;51.208;6.418;2023-02-28T00:42:53;3.60;90.70
36292;DHT22;22327;51.208;6.418;2023-02-28T00:45:18;3.60;90.90
36292;DHT22;22327;51.208;6.418;2023-02-28T00:47:44;3.60;90.90
36292;DHT22;22327;51.208;6.418;2023-02-28T00:50:11;3.60;91.00
36292;DHT22;22327;51.208;6.418;2023-02-28T00:52:37;3.60;91.10
36292;DHT22;22327;51.208;6.418;2023-02-28T00:55:03;3.60;91.10
36292;DHT22;22327;51.208;6.418;2023-02-28T00:57:28;3.50;91.00
36292;DHT22;22327;51.208;6.418;2023-02-28T00:59:54;3.50;91.10
36292;DHT22;22327;51.208;6.418;2023-02-28T01:02:21;3.50;91.30
36292;DHT22;22327;51.208;6.418;2023-02-28T01:04:47;3.50;91.30
36292;DHT22;22327;51.208;6.418;2023-02-28T01:07:12;3.40;91.30
36292;DHT22;22327;51.208;6.418;2023-02-28T01:09:40;3.50;91.30
36292;DHT22;22327;51.208;6.418;2023-02-28T01:12:07;3.50;91.20
36292;DHT22;22327;51.208;6.418;2023-02-28T01:14:33;3.40;91.20
36292;DHT22;22327;51.208;6.418;2023-02-28T01:16:59;3.40;91.30
36292;DHT22;22327;51.208;6.418;2023-02-28T01:19:25;3.40;91.50
36292;DHT22;22327;51.208;6.418;2023-02-28T01:21:50;3.40;91.80
36292;DHT22;22327;51.208;6.418;2023-02-28T01:24:16;3.40;91.90
36292;DHT22;22327;51.208;6.418;2023-02-28T01:26:41;3.40;91.90
36292;DHT22;22327;51.208;6.418;2023-02-28T01:29:07;3.50;91.70
36292;DHT22;22327;51.208;6.418;2023-02-28T01:31:32;3.40;91.70
36292;DHT22;22327;51.208;6.418;2023-02-28T01:33:58;3.40;92.20
36292;DHT22;22327;51.208;6.418;2023-02-28T01:36:25;3.40;91.90
36292;DHT22;22327;51.208;6.418;2023-02-28T01:38:51;3.40;91.80
36292;DHT22;22327;51.208;6.418;2023-02-28T01:41:26;3.40;91.80
36292;DHT22;22327;51.208;6.418;2023-02-28T01:43:55;3.40;91.80
36292;DHT22;22327;51.208;6.418;2023-02-28T01:46:21;3.40;91.80
36292;DHT22;22327;51.208;6.418;2023-02-28T01:48:54;3.30;91.90
36292;DHT22;22327;51.208;6.418;2023-02-28T01:51:30;3.30;92.00
36292;DHT22;22327;51.208;6.418;2023-02-28T01:54:01;3.30;92.00
36292;DHT22;22327;51.208;6.418;2023-02-28T01:56:30;3.30;92.00
36292;DHT22;22327;51.208;6.418;2023-02-28T01:58:58;3.20;92.20
36292;DHT22;22327;51.208;6.418;2023-02-28T02:01:26;3.10;92.40
36292;DHT22;22327;51.208;6.418;2023-02-28T02:03:58;3.10;92.60
36292;DHT22;22327;51.208;6.418;2023-02-28T02:06:43;3.00;92.70
36292;DHT22;22327;51.208;6.418;2023-02-28T02:09:08;3.00;92.80
36292;DHT22;22327;51.208;6.418;2023-02-28T02:11:34;2.90;92.90
36292;DHT22;22327;51.208;6.418;2023-02-28T02:37:27;2.70;93.80
36292;DHT22;22327;51.208;6.418;2023-02-28T02:42:58;2.70;94.10
36292;DHT22;22327;51.208;6.418;2023-02-28T02:45:44;2.60;94.00
36292;DHT22;22327;51.208;6.418;2023-02-28T02:48:14;2.60;94.20
36292;DHT22;22327;51.208;6.418;2023-02-28T02:50:46;2.60;94.30
36292;DHT22;22327;51.208;6.418;2023-02-28T02:53:14;2.60;94.20
36292;DHT22;22327;51.208;6.418;2023-02-28T02:55:45;2.60;94.20
36292;DHT22;22327;51.208;6.418;2023-02-28T02:58:14;2.60;94.30
36292;DHT22;22327;51.208;6.418;2023-02-28T03:00:47;2.60;94.20
36292;DHT22;22327;51.208;6.418;2023-02-28T03:03:13;2.60;94.30
36292;DHT22;22327;51.208;6.418;2023-02-28T03:05:46;2.60;94.20
36292;DHT22;22327;51.208;6.418;2023-02-28T03:08:13;2.70;94.20
36292;DHT22;22327;51.208;6.418;2023-02-28T03:10:46;2.70;94.20
36292;DHT22;22327;51.208;6.418;2023-02-28T03:22:07;2.70;94.00
36292;DHT22;22327;51.208;6.418;2023-02-28T03:24:50;2.70;94.00
36292;DHT22;22327;51.208;6.418;2023-02-28T03:27:23;2.60;94.00
36292;DHT22;22327;51.208;6.418;2023-02-28T03:30:03;2.60;94.00
36292;DHT22;22327;51.208;6.418;2023-02-28T03:32:54;2.60;94.00
36292;DHT22;22327;51.208;6.418;2023-02-28T03:35:26;2.50;94.10
36292;DHT22;22327;51.208;6.418;2023-02-28T03:38:00;2.50;94.00
36292;DHT22;22327;51.208;6.418;2023-02-28T03:40:28;2.50;94.10
36292;DHT22;22327;51.208;6.418;2023-02-28T03:43:00;2.40;94.10
36292;DHT22;22327;51.208;6.418;2023-02-28T03:45:29;2.40;94.40
36292;DHT22;22327;51.208;6.418;2023-02-28T03:48:03;2.40;94.60
36292;DHT22;22327;51.208;6.418;2023-02-28T03:50:40;2.30;94.60
36292;DHT22;22327;51.208;6.418;2023-02-28T03:53:19;2.30;94.60
36292;DHT22;22327;51.208;6.418;2023-02-28T03:56:26;2.20;94.80
36292;DHT22;22327;51.208;6.418;2023-02-28T03:59:06;2.20;94.80
36292;DHT22;22327;51.208;6.418;2023-02-28T04:01:44;2.10;95.20
36292;DHT22;22327;51.208;6.418;2023-02-28T04:04:11;2.10;95.20
36292;DHT22;22327;51.208;6.418;2023-02-28T04:06:37;2.10;95.40
36292;DHT22;22327;51.208;6.418;2023-02-28T04:09:04;2.00;95.50
36292;DHT22;22327;51.208;6.418;2023-02-28T04:11:37;2.00;95.60
36292;DHT22;22327;51.208;6.418;2023-02-28T04:14:04;2.10;95.60
36292;DHT22;22327;51.208;6.418;2023-02-28T04:16:31;2.10;95.60
36292;DHT22;22327;51.208;6.418;2023-02-28T04:18:57;2.10;95.70
36292;DHT22;22327;51.208;6.418;2023-02-28T04:21:31;2.10;95.70
36292;DHT22;22327;51.208;6.418;2023-02-28T04:23:57;2.00;95.60
36292;DHT22;22327;51.208;6.418;2023-02-28T04:26:28;2.10;95.60
36292;DHT22;22327;51.208;6.418;2023-02-28T04:28:55;2.10;95.60
36292;DHT22;22327;51.208;6.418;2023-02-28T04:31:20;2.00;95.50
36292;DHT22;22327;51.208;6.418;2023-02-28T04:33:46;2.00;95.50
36292;DHT22;22327;51.208;6.418;2023-02-28T04:36:11;2.00;95.60
36292;DHT22;22327;51.208;6.418;2023-02-28T04:38:39;1.90;95.60
36292;DHT22;22327;51.208;6.418;2023-02-28T04:41:05;1.90;95.60
36292;DHT22;22327;51.208;6.418;2023-02-28T04:43:31;1.90;95.60
36292;DHT22;22327;51.208;6.418;2023-02-28T04:45:58;2.00;95.50
36292;DHT22;22327;51.208;6.418;2023-02-28T04:48:27;2.00;95.60
36292;DHT22;22327;51.208;6.418;2023-02-28T04:50:53;1.90;95.50
36292;DHT22;22327;51.208;6.418;2023-02-28T04:53:19;1.90;95.40
36292;DHT22;22327;51.208;6.418;2023-02-28T04:55:45;1.90;95.40
36292;DHT22;22327;51.208;6.418;2023-02-28T04:58:12;1.90;95.40
36292;DHT22;22327;51.208;6.418;2023-02-28T05:00:40;1.90;95.30
36292;DHT22;22327;51.208;6.418;2023-02-28T05:03:05;1.90;95.30
36292;DHT22;22327;51.208;6.418;2023-02-28T05:05:31;1.90;95.20
36292;DHT22;22327;51.208;6.418;2023-02-28T05:07:57;1.90;95.00
36292;DHT22;22327;51.208;6.418;2023-02-28T05:10:23;2.00;95.00
36292;DHT22;22327;51.208;6.418;2023-02-28T05:12:48;1.90;94.90
36292;DHT22;22327;51.208;6.418;2023-02-28T05:15:15;1.90;94.90
36292;DHT22;22327;51.208;6.418;2023-02-28T05:17:41;1.90;94.80
36292;DHT22;22327;51.208;6.418;2023-02-28T05:20:08;1.90;94.70
36292;DHT22;22327;51.208;6.418;2023-02-28T05:22:36;1.90;94.70
36292;DHT22;22327;51.208;6.418;2023-02-28T05:25:03;2.00;94.60
36292;DHT22;22327;51.208;6.418;2023-02-28T05:27:30;2.00;94.50
36292;DHT22;22327;51.208;6.418;2023-02-28T05:29:56;2.00;94.40
36292;DHT22;22327;51.208;6.418;2023-02-28T05:32:21;2.00;94.20
36292;DHT22;22327;51.208;6.418;2023-02-28T05:34:47;2.00;94.10
36292;DHT22;22327;51.208;6.418;2023-02-28T05:37:14;2.00;94.20
36292;DHT22;22327;51.208;6.418;2023-02-28T05:39:40;2.00;94.00
36292;DHT22;22327;51.208;6.418;2023-02-28T05:42:05;2.00;93.90
36292;DHT22;22327;51.208;6.418;2023-02-28T05:44:32;2.00;93.90
36292;DHT22;22327;51.208;6.418;2023-02-28T05:46:57;2.00;93.90
36292;DHT22;22327;51.208;6.418;2023-02-28T05:49:23;2.00;93.80
36292;DHT22;22327;51.208;6.418;2023-02-28T05:51:48;1.90;93.80
36292;DHT22;22327;51.208;6.418;2023-02-28T05:54:14;1.90;93.80
36292;DHT22;22327;51.208;6.418;2023-02-28T05:56:40;1.90;93.70
36292;DHT22;22327;51.208;6.418;2023-02-28T05:59:09;1.90;93.80
36292;DHT22;22327;51.208;6.418;2023-02-28T06:01:39;1.90;93.70
36292;DHT22;22327;51.208;6.418;2023-02-28T06:04:08;1.90;93.60
36292;DHT22;22327;51.208;6.418;2023-02-28T06:06:34;1.80;93.60
36292;DHT22;22327;51.208;6.418;2023-02-28T06:09:01;1.80;93.70
36292;DHT22;22327;51.208;6.418;2023-02-28T06:11:27;1.80;93.70
36292;DHT22;22327;51.208;6.418;2023-02-28T06:13:57;1.80;93.60
36292;DHT22;22327;51.208;6.418;2023-02-28T06:16:25;1.90;93.60
36292;DHT22;22327;51.208;6.418;2023-02-28T06:18:51;1.80;93.50
36292;DHT22;22327;51.208;6.418;2023-02-28T06:21:18;1.80;93.60
36292;DHT22;22327;51.208;6.418;2023-02-28T06:23:43;1.90;93.50
36292;DHT22;22327;51.208;6.418;2023-02-28T06:26:09;1.80;93.50
36292;DHT22;22327;51.208;6.418;2023-02-28T06:28:35;1.80;93.50
36292;DHT22;22327;51.208;6.418;2023-02-28T06:31:09;1.80;93.40
36292;DHT22;22327;51.208;6.418;2023-02-28T06:33:37;1.90;93.30
36292;DHT22;22327;51.208;6.418;2023-02-28T06:36:03;1.90;93.40
36292;DHT22;22327;51.208;6.418;2023-02-28T06:38:29;1.90;93.30
36292;DHT22;22327;51.208;6.418;2023-02-28T06:40:56;1.90;93.20
36292;DHT22;22327;51.208;6.418;2023-02-28T06:43:23;2.00;93.10
36292;DHT22;22327;51.208;6.418;2023-02-28T06:45:48;2.00;93.10
36292;DHT22;22327;51.208;6.418;2023-02-28T06:48:14;2.10;93.10
36292;DHT22;22327;51.208;6.418;2023-02-28T06:50:40;2.20;93.00
36292;DHT22;22327;51.208;6.418;2023-02-28T06:53:05;2.40;92.80
36292;DHT22;22327;51.208;6.418;2023-02-28T06:55:31;2.50;92.30
36292;DHT22;22327;51.208;6.418;2023-02-28T06:57:57;2.70;91.90
36292;DHT22;22327;51.208;6.418;2023-02-28T07:00:23;2.80;91.70
36292;DHT22;22327;51.208;6.418;2023-02-28T07:02:48;3.00;91.60
36292;DHT22;22327;51.208;6.418;2023-02-28T07:05:14;3.10;91.20
36292;DHT22;22327;51.208;6.418;2023-02-28T07:07:40;3.20;90.90
36292;DHT22;22327;51.208;6.418;2023-02-28T07:10:10;3.40;90.50
36292;DHT22;22327;51.208;6.418;2023-02-28T07:12:36;3.40;90.00
36292;DHT22;22327;51.208;6.418;2023-02-28T07:15:03;3.50;89.60
36292;DHT22;22327;51.208;6.418;2023-02-28T07:17:29;3.50;88.80
36292;DHT22;22327;51.208;6.418;2023-02-28T07:19:55;3.60;88.80
36292;DHT22;22327;51.208;6.418;2023-02-28T07:22:20;3.60;88.30
36292;DHT22;22327;51.208;6.418;2023-02-28T07:24:46;3.80;88.70
36292;DHT22;22327;51.208;6.418;2023-02-28T07:27:11;4.10;88.40
36292;DHT22;22327;51.208;6.418;2023-02-28T07:29:37;4.30;86.90
36292;DHT22;22327;51.208;6.418;2023-02-28T07:32:03;4.50;85.50
36292;DHT22;22327;51.208;6.418;2023-02-28T07:34:29;4.70;84.70
36292;DHT22;22327;51.208;6.418;2023-02-28T07:36:54;4.80;83.10
36292;DHT22;22327;51.208;6.418;2023-02-28T07:39:21;4.70;81.20
36292;DHT22;22327;51.208;6.418;2023-02-28T07:41:47;4.80;82.00
36292;DHT22;22327;51.208;6.418;2023-02-28T07:44:13;4.90;82.20
36292;DHT22;22327;51.208;6.418;2023-02-28T07:46:38;5.30;82.80
36292;DHT22;22327;51.208;6.418;2023-02-28T07:49:05;5.70;80.00
36292;DHT22;22327;51.208;6.418;2023-02-28T07:51:31;6.00;77.70
36292;DHT22;22327;51.208;6.418;2023-02-28T07:53:57;6.20;76.70
36292;DHT22;22327;51.208;6.418;2023-02-28T07:56:22;6.30;76.00
36292;DHT22;22327;51.208;6.418;2023-02-28T07:58:48;6.30;74.70
36292;DHT22;22327;51.208;6.418;2023-02-28T08:01:14;6.30;74.20
36292;DHT22;22327;51.208;6.418;2023-02-28T08:03:40;6.30;73.30
36292;DHT22;22327;51.208;6.418;2023-02-28T08:06:07;6.40;72.20
36292;DHT22;22327;51.208;6.418;2023-02-28T08:08:33;6.40;72.40
36292;DHT22;22327;51.208;6.418;2023-02-28T08:11:03;6.30;71.30
36292;DHT22;22327;51.208;6.418;2023-02-28T08:13:30;6.30;71.40
36292;DHT22;22327;51.208;6.418;2023-02-28T08:15:56;6.20;71.00
36292;DHT22;22327;51.208;6.418;2023-02-28T08:18:22;6.20;71.60
36292;DHT22;22327;51.208;6.418;2023-02-28T08:20:48;6.20;68.20
36292;DHT22;22327;51.208;6.418;2023-02-28T08:23:14;6.10;68.80
36292;DHT22;22327;51.208;6.418;2023-02-28T08:25:39;6.20;68.80
36292;DHT22;22327;51.208;6.418;2023-02-28T08:28:05;6.20;66.60
36292;DHT22;22327;51.208;6.418;2023-02-28T08:30:30;6.20;67.40
36292;DHT22;22327;51.208;6.418;2023-02-28T08:32:56;6.30;66.50
36292;DHT22;22327;51.208;6.418;2023-02-28T08:35:22;6.50;65.80
36292;DHT22;22327;51.208;6.418;2023-02-28T08:37:48;6.80;64.00
36292;DHT22;22327;51.208;6.418;2023-02-28T08:40:15;7.00;62.70
36292;DHT22;22327;51.208;6.418;2023-02-28T08:42:47;7.00;62.30
36292;DHT22;22327;51.208;6.418;2023-02-28T08:45:14;7.00;61.20
36292;DHT22;22327;51.208;6.418;2023-02-28T08:47:40;7.00;61.50
36292;DHT22;22327;51.208;6.418;2023-02-28T08:50:06;7.00;59.10
36292;DHT22;22327;51.208;6.418;2023-02-28T08:52:32;7.10;59.20
36292;DHT22;22327;51.208;6.418;2023-02-28T08:54:57;7.20;59.90
36292;DHT22;22327;51.208;6.418;2023-02-28T08:57:23;7.40;58.30
36292;DHT22;22327;51.208;6.418;2023-02-28T08:59:51;7.50;57.20
36292;DHT22;22327;51.208;6.418;2023-02-28T09:02:17;7.70;57.00
36292;DHT22;22327;51.208;6.418;2023-02-28T09:04:42;7.80;55.60
36292;DHT22;22327;51.208;6.418;2023-02-28T09:07:10;8.20;55.50
36292;DHT22;22327;51.208;6.418;2023-02-28T09:09:36;8.50;52.30
36292;DHT22;22327;51.208;6.418;2023-02-28T09:12:02;8.80;52.50
36292;DHT22;22327;51.208;6.418;2023-02-28T09:14:28;9.10;51.10
36292;DHT22;22327;51.208;6.418;2023-02-28T09:16:53;9.60;50.60
36292;DHT22;22327;51.208;6.418;2023-02-28T09:19:20;10.20;49.70
36292;DHT22;22327;51.208;6.418;2023-02-28T09:21:45;10.50;47.40
36292;DHT22;22327;51.208;6.418;2023-02-28T09:24:11;10.70;45.50
36292;DHT22;22327;51.208;6.418;2023-02-28T09:26:39;11.40;43.80
36292;DHT22;22327;51.208;6.418;2023-02-28T09:29:05;11.50;45.60
36292;DHT22;22327;51.208;6.418;2023-02-28T09:31:31;12.10;43.10
36292;DHT22;22327;51.208;6.418;2023-02-28T09:33:58;12.50;40.20
36292;DHT22;22327;51.208;6.418;2023-02-28T09:36:27;12.80;40.50
36292;DHT22;22327;51.208;6.418;2023-02-28T09:38:53;12.90;38.60
36292;DHT22;22327;51.208;6.418;2023-02-28T09:41:22;13.10;40.00
36292;DHT22;22327;51.208;6.418;2023-02-28T09:43:55;13.20;37.50
36292;DHT22;22327;51.208;6.418;2023-02-28T09:46:32;13.30;37.90
36292;DHT22;22327;51.208;6.418;2023-02-28T09:49:08;13.60;36.90
36292;DHT22;22327;51.208;6.418;2023-02-28T09:51:56;13.80;35.00
36292;DHT22;22327;51.208;6.418;2023-02-28T09:54:26;13.90;35.90
36292;DHT22;22327;51.208;6.418;2023-02-28T09:57:00;13.80;34.40
36292;DHT22;22327;51.208;6.418;2023-02-28T10:00:01;13.40;34.00
36292;DHT22;22327;51.208;6.418;2023-02-28T10:03:04;12.60;34.60
36292;DHT22;22327;51.208;6.418;2023-02-28T10:08:36;11.20;36.80
36292;DHT22;22327;51.208;6.418;2023-02-28T10:11:07;10.20;38.10
36292;DHT22;22327;51.208;6.418;2023-02-28T10:16:41;9.00;40.70
36292;DHT22;22327;51.208;6.418;2023-02-28T10:19:46;8.70;42.40
36292;DHT22;22327;51.208;6.418;2023-02-28T10:24:53;8.50;43.50
36292;DHT22;22327;51.208;6.418;2023-02-28T10:27:23;8.50;43.10
36292;DHT22;22327;51.208;6.418;2023-02-28T10:29:54;8.40;43.40
36292;DHT22;22327;51.208;6.418;2023-02-28T10:32:27;8.30;43.00
36292;DHT22;22327;51.208;6.418;2023-02-28T10:35:10;8.20;43.60
36292;DHT22;22327;51.208;6.418;2023-02-28T10:37:41;8.10;43.90
36292;DHT22;22327;51.208;6.418;2023-02-28T10:45:23;7.70;44.50
36292;DHT22;22327;51.208;6.418;2023-02-28T10:47:51;7.60;44.50
36292;DHT22;22327;51.208;6.418;2023-02-28T10:58:40;7.50;45.80
36292;DHT22;22327;51.208;6.418;2023-02-28T11:01:58;7.60;46.40
36292;DHT22;22327;51.208;6.418;2023-02-28T11:03:59;7.70;46.20
36292;DHT22;22327;51.208;6.418;2023-02-28T11:06:33;7.60;46.20
36292;DHT22;22327;51.208;6.418;2023-02-28T11:09:23;7.50;46.20
36292;DHT22;22327;51.208;6.418;2023-02-28T11:11:50;7.50;46.80
36292;DHT22;22327;51.208;6.418;2023-02-28T11:14:21;7.30;46.50
36292;DHT22;22327;51.208;6.418;2023-02-28T11:16:48;7.40;46.80
36292;DHT22;22327;51.208;6.418;2023-02-28T11:19:25;7.40;47.40
36292;DHT22;22327;51.208;6.418;2023-02-28T11:21:57;7.40;48.20
36292;DHT22;22327;51.208;6.418;2023-02-28T11:24:28;7.40;48.50
36292;DHT22;22327;51.208;6.418;2023-02-28T11:26:55;7.50;48.90
36292;DHT22;22327;51.208;6.418;2023-02-28T11:29:28;7.50;49.00
36292;DHT22;22327;51.208;6.418;2023-02-28T11:32:13;7.50;48.80
36292;DHT22;22327;51.208;6.418;2023-02-28T11:34:42;7.50;48.70
36292;DHT22;22327;51.208;6.418;2023-02-28T11:37:13;7.50;48.70
36292;DHT22;22327;51.208;6.418;2023-02-28T11:39:39;7.70;49.10
36292;DHT22;22327;51.208;6.418;2023-02-28T11:48:23;7.80;47.90
36292;DHT22;22327;51.208;6.418;2023-02-28T11:53:50;7.40;48.30
36292;DHT22;22327;51.208;6.418;2023-02-28T12:01:54;7.40;48.70
36292;DHT22;22327;51.208;6.418;2023-02-28T12:04:47;7.30;49.20
36292;DHT22;22327;51.208;6.418;2023-02-28T12:07:22;7.40;49.90
36292;DHT22;22327;51.208;6.418;2023-02-28T12:18:26;7.30;49.20
36292;DHT22;22327;51.208;6.418;2023-02-28T12:29:04;7.30;49.50
36292;DHT22;22327;51.208;6.418;2023-02-28T12:31:40;7.30;49.50
36292;DHT22;22327;51.208;6.418;2023-02-28T12:34:19;7.30;49.50
36292;DHT22;22327;51.208;6.418;2023-02-28T12:36:50;7.20;50.10
36292;DHT22;22327;51.208;6.418;2023-02-28T12:39:26;7.30;49.40
36292;DHT22;22327;51.208;6.418;2023-02-28T12:42:03;7.30;49.30
36292;DHT22;22327;51.208;6.418;2023-02-28T12:44:37;7.30;49.20
36292;DHT22;22327;51.208;6.418;2023-02-28T12:47:12;7.30;49.30
36292;DHT22;22327;51.208;6.418;2023-02-28T12:49:41;7.50;49.60
36292;DHT22;22327;51.208;6.418;2023-02-28T12:52:08;7.50;49.70
36292;DHT22;22327;51.208;6.418;2023-02-28T12:54:44;7.60;49.70
36292;DHT22;22327;51.208;6.418;2023-02-28T12:57:21;7.60;47.90
36292;DHT22;22327;51.208;6.418;2023-02-28T12:59:52;7.50;47.80
36292;DHT22;22327;51.208;6.418;2023-02-28T13:11:33;7.50;48.90
36292;DHT22;22327;51.208;6.418;2023-02-28T13:14:05;7.50;48.70
36292;DHT22;22327;51.208;6.418;2023-02-28T13:16:56;7.50;48.60
36292;DHT22;22327;51.208;6.418;2023-02-28T13:19:29;7.50;48.30
36292;DHT22;22327;51.208;6.418;2023-02-28T13:21:56;7.50;48.50
36292;DHT22;22327;51.208;6.418;2023-02-28T13:24:45;7.50;48.50
36292;DHT22;22327;51.208;6.418;2023-02-28T13:29:50;7.70;48.80
36292;DHT22;22327;51.208;6.418;2023-02-28T13:42:47;7.90;49.70
36292;DHT22;22327;51.208;6.418;2023-02-28T13:45:28;7.90;48.60
36292;DHT22;22327;51.208;6.418;2023-02-28T13:50:27;7.90;49.10
36292;DHT22;22327;51.208;6.418;2023-02-28T13:55:48;8.10;48.30
36292;DHT22;22327;51.208;6.418;2023-02-28T14:01:14;8.20;48.50
36292;DHT22;22327;51.208;6.418;2023-02-28T14:06:31;8.10;48.10
36292;DHT22;22327;51.208;6.418;2023-02-28T14:09:25;8.10;48.40
36292;DHT22;22327;51.208;6.418;2023-02-28T14:11:52;8.10;48.40
36292;DHT22;22327;51.208;6.418;2023-02-28T14:17:22;8.20;48.80
36292;DHT22;22327;51.208;6.418;2023-02-28T14:19:49;8.20;48.90
36292;DHT22;22327;51.208;6.418;2023-02-28T14:22:28;8.20;49.40
36292;DHT22;22327;51.208;6.418;2023-02-28T14:31:01;8.20;48.70
36292;DHT22;22327;51.208;6.418;2023-02-28T14:36:10;8.20;49.90
36292;DHT22;22327;51.208;6.418;2023-02-28T14:38:46;8.30;49.70
36292;DHT22;22327;51.208;6.418;2023-02-28T14:41:32;8.40;49.00
36292;DHT22;22327;51.208;6.418;2023-02-28T14:44:01;8.40;48.70
36292;DHT22;22327;51.208;6.418;2023-02-28T14:46:36;8.30;48.90
36292;DHT22;22327;51.208;6.418;2023-02-28T14:49:04;8.40;49.80
36292;DHT22;22327;51.208;6.418;2023-02-28T14:51:31;8.50;49.50
36292;DHT22;22327;51.208;6.418;2023-02-28T14:54:00;8.40;49.00
36292;DHT22;22327;51.208;6.418;2023-02-28T14:56:33;8.30;49.50
36292;DHT22;22327;51.208;6.418;2023-02-28T14:59:00;8.40;49.60
36292;DHT22;22327;51.208;6.418;2023-02-28T15:01:26;8.40;49.80
36292;DHT22;22327;51.208;6.418;2023-02-28T15:04:03;8.40;50.00
36292;DHT22;22327;51.208;6.418;2023-02-28T15:06:29;8.50;50.40
36292;DHT22;22327;51.208;6.418;2023-02-28T15:09:17;8.40;49.60
36292;DHT22;22327;51.208;6.418;2023-02-28T15:11:48;8.40;49.80
36292;DHT22;22327;51.208;6.418;2023-02-28T15:14:18;8.40;50.10
36292;DHT22;22327;51.208;6.418;2023-02-28T15:16:48;8.40;50.00
36292;DHT22;22327;51.208;6.418;2023-02-28T15:19:22;8.50;49.90
36292;DHT22;22327;51.208;6.418;2023-02-28T15:21:55;8.40;49.30
36292;DHT22;22327;51.208;6.418;2023-02-28T15:24:30;8.40;49.70
36292;DHT22;22327;51.208;6.418;2023-02-28T15:27:00;8.40;50.30
36292;DHT22;22327;51.208;6.418;2023-02-28T15:29:29;8.50;49.90
36292;DHT22;22327;51.208;6.418;2023-02-28T15:32:01;8.50;49.40
36292;DHT22;22327;51.208;6.418;2023-02-28T15:36:53;8.40;49.70
36292;DHT22;22327;51.208;6.418;2023-02-28T15:39:27;8.40;49.80
36292;DHT22;22327;51.208;6.418;2023-02-28T15:42:17;8.30;49.90
36292;DHT22;22327;51.208;6.418;2023-02-28T15:44:43;8.30;50.00
36292;DHT22;22327;51.208;6.418;2023-02-28T15:47:21;8.30;50.20
36292;DHT22;22327;51.208;6.418;2023-02-28T15:49:52;8.30;50.70
36292;DHT22;22327;51.208;6.418;2023-02-28T15:52:38;8.30;51.00
36292;DHT22;22327;51.208;6.418;2023-02-28T15:55:20;8.30;51.10
36292;DHT22;22327;51.208;6.418;2023-02-28T15:57:49;8.30;51.00
36292;DHT22;22327;51.208;6.418;2023-02-28T16:00:20;8.30;50.80
36292;DHT22;22327;51.208;6.418;2023-02-28T16:02:46;8.30;50.70
36292;DHT22;22327;51.208;6.418;2023-02-28T16:07:39;8.20;50.90
36292;DHT22;22327;51.208;6.418;2023-02-28T16:10:06;8.30;51.10
36292;DHT22;22327;51.208;6.418;2023-02-28T16:12:35;8.30;51.10
36292;DHT22;22327;51.208;6.418;2023-02-28T16:15:06;8.20;51.30
36292;DHT22;22327;51.208;6.418;2023-02-28T16:17:38;8.20;51.30
36292;DHT22;22327;51.208;6.418;2023-02-28T16:20:15;8.10;52.00
36292;DHT22;22327;51.208;6.418;2023-02-28T16:22:42;8.00;52.60
36292;DHT22;22327;51.208;6.418;2023-02-28T16:25:11;7.90;53.00
36292;DHT22;22327;51.208;6.418;2023-02-28T16:27:37;7.90;53.50
36292;DHT22;22327;51.208;6.418;2023-02-28T16:30:05;7.90;53.70
36292;DHT22;22327;51.208;6.418;2023-02-28T16:32:33;7.90;53.80
36292;DHT22;22327;51.208;6.418;2023-02-28T16:35:00;7.90;53.90
36292;DHT22;22327;51.208;6.418;2023-02-28T16:37:26;7.80;54.20
36292;DHT22;22327;51.208;6.418;2023-02-28T16:39:52;7.80;54.40
36292;DHT22;22327;51.208;6.418;2023-02-28T16:42:23;7.80;54.50
36292;DHT22;22327;51.208;6.418;2023-02-28T16:44:50;7.70;54.90
36292;DHT22;22327;51.208;6.418;2023-02-28T16:47:16;7.70;55.10
36292;DHT22;22327;51.208;6.418;2023-02-28T16:49:41;7.60;55.20
36292;DHT22;22327;51.208;6.418;2023-02-28T16:52:09;7.60;55.50
36292;DHT22;22327;51.208;6.418;2023-02-28T16:54:34;7.50;55.80
36292;DHT22;22327;51.208;6.418;2023-02-28T16:57:00;7.50;56.00
36292;DHT22;22327;51.208;6.418;2023-02-28T16:59:26;7.50;56.30
36292;DHT22;22327;51.208;6.418;2023-02-28T17:01:53;7.50;56.30
36292;DHT22;22327;51.208;6.418;2023-02-28T17:04:19;7.40;56.50
36292;DHT22;22327;51.208;6.418;2023-02-28T17:06:44;7.40;56.70
36292;DHT22;22327;51.208;6.418;2023-02-28T17:09:16;7.30;57.00
36292;DHT22;22327;51.208;6.418;2023-02-28T17:11:43;7.30;57.30
36292;DHT22;22327;51.208;6.418;2023-02-28T17:14:08;7.20;57.50
36292;DHT22;22327;51.208;6.418;2023-02-28T17:16:35;7.10;57.70
36292;DHT22;22327;51.208;6.418;2023-02-28T17:19:04;7.20;58.50
36292;DHT22;22327;51.208;6.418;2023-02-28T17:21:30;7.10;58.20
36292;DHT22;22327;51.208;6.418;2023-02-28T17:23:56;7.10;58.30
36292;DHT22;22327;51.208;6.418;2023-02-28T17:26:23;7.00;58.40
36292;DHT22;22327;51.208;6.418;2023-02-28T17:28:52;7.00;58.70
36292;DHT22;22327;51.208;6.418;2023-02-28T17:31:19;6.90;58.70
36292;DHT22;22327;51.208;6.418;2023-02-28T17:33:44;6.90;58.90
36292;DHT22;22327;51.208;6.418;2023-02-28T17:36:13;6.90;59.30
36292;DHT22;22327;51.208;6.418;2023-02-28T17:38:40;6.80;59.40
36292;DHT22;22327;51.208;6.418;2023-02-28T17:41:05;6.70;59.70
36292;DHT22;22327;51.208;6.418;2023-02-28T17:43:31;6.70;59.80
36292;DHT22;22327;51.208;6.418;2023-02-28T17:45:56;6.70;59.90
36292;DHT22;22327;51.208;6.418;2023-02-28T17:48:23;6.70;60.40
36292;DHT22;22327;51.208;6.418;2023-02-28T17:50:49;6.60;60.40
36292;DHT22;22327;51.208;6.418;2023-02-28T17:53:15;6.60;60.70
36292;DHT22;22327;51.208;6.418;2023-02-28T17:55:40;6.60;61.10
36292;DHT22;22327;51.208;6.418;2023-02-28T17:58:07;6.50;61.50
36292;DHT22;22327;51.208;6.418;2023-02-28T18:00:34;6.50;62.00
36292;DHT22;22327;51.208;6.418;2023-02-28T18:02:59;6.40;62.20
36292;DHT22;22327;51.208;6.418;2023-02-28T18:05:25;6.40;62.70
36292;DHT22;22327;51.208;6.418;2023-02-28T18:07:51;6.40;62.70
36292;DHT22;22327;51.208;6.418;2023-02-28T18:10:19;6.30;63.20
36292;DHT22;22327;51.208;6.418;2023-02-28T18:12:46;6.30;63.50
36292;DHT22;22327;51.208;6.418;2023-02-28T18:15:13;6.30;64.10
36292;DHT22;22327;51.208;6.418;2023-02-28T18:17:38;6.30;64.00